Stations météo

réclame
Mon MeteoGroup
Logan Botanic Garden, Grande-Bretagne (99193): Température de l'air & dewpoint: 15.06.2018 11:00:00 - 21.06.2018 11:00:00 (BST)Logan Botanic Garden, Grande-Bretagne (99193): Température de l'air -20cm: 15.06.2018 11:00:00 - 21.06.2018 11:00:00 (BST)Logan Botanic Garden, Grande-Bretagne (99193): Quantités de précipitations: 15.06.2018 11:00:00 - 21.06.2018 11:00:00 (BST)
Date & Time tt [°C] td [°C] tt -20cm [°C] rr [mm]
21.06.2018 11:00:00 - - - -
21.06.2018 10:00:00 12,1 7,4 14,9 0,0
21.06.2018 09:00:00 12,1 7,1 - 0,0
21.06.2018 08:00:00 11,5 6,9 - 0,0
21.06.2018 07:00:00 10,7 7,1 - 0,0
21.06.2018 06:00:00 9,7 6,4 - 0,0
21.06.2018 05:00:00 9,5 6,6 - 0,0
21.06.2018 04:00:00 9,2 6,1 - 0,0
21.06.2018 03:00:00 9,7 7,0 - 0,0
21.06.2018 02:00:00 9,5 6,3 - 0,0
21.06.2018 01:00:00 9,6 7,3 - 0,0
21.06.2018 00:00:00 9,9 7,2 - 0,0
20.06.2018 23:00:00 9,9 7,3 - 0,0
20.06.2018 22:00:00 10,2 8,0 - 0,2
20.06.2018 21:00:00 10,8 7,8 - 0,0
20.06.2018 20:00:00 11,6 7,6 - 0,0
20.06.2018 19:00:00 12,4 6,9 - 0,0
20.06.2018 18:00:00 12,6 5,4 - 0,0
20.06.2018 17:00:00 12,4 4,7 - 0,0
20.06.2018 16:00:00 14,0 5,2 - 0,0
20.06.2018 15:00:00 13,5 5,7 - 0,0
20.06.2018 14:00:00 13,5 8,4 - 0,0
20.06.2018 13:00:00 13,6 9,7 - 0,0
20.06.2018 12:00:00 13,2 9,4 - 0,0
20.06.2018 11:00:00 12,5 9,1 - 0,0
20.06.2018 10:00:00 11,7 9,0 14,7 0,0
20.06.2018 09:00:00 10,9 9,4 - 0,0
20.06.2018 08:00:00 10,6 9,7 - 0,4
20.06.2018 07:00:00 13,1 12,3 - 0,0
20.06.2018 06:00:00 12,6 12,2 - 0,0
20.06.2018 05:00:00 12,8 12,3 - 0,0
20.06.2018 04:00:00 12,8 12,2 - 0,0
20.06.2018 03:00:00 13,5 12,6 - 0,0
20.06.2018 02:00:00 13,3 12,3 - 0,0
20.06.2018 01:00:00 13,4 12,4 - 0,0
20.06.2018 00:00:00 13,2 12,5 - 0,0
19.06.2018 23:00:00 12,3 11,6 - 0,0
19.06.2018 22:00:00 13,4 12,9 - 0,0
19.06.2018 21:00:00 11,9 11,6 - 0,2
19.06.2018 20:00:00 11,1 10,7 - 0,8
19.06.2018 19:00:00 10,2 9,7 - 1,2
19.06.2018 18:00:00 9,7 8,9 - 2,0
19.06.2018 17:00:00 10,2 8,6 - 0,6
19.06.2018 16:00:00 12,3 6,4 - 0,0
19.06.2018 15:00:00 13,0 7,2 - 0,0
19.06.2018 14:00:00 12,8 9,8 - 0,0
19.06.2018 13:00:00 12,1 8,4 - 0,0
19.06.2018 12:00:00 12,3 8,2 - 0,0
19.06.2018 11:00:00 12,3 7,9 - 0,0
19.06.2018 10:00:00 12,0 8,3 14,7 0,0
19.06.2018 09:00:00 11,4 7,8 - 0,0
19.06.2018 08:00:00 11,0 8,2 - 0,0
19.06.2018 07:00:00 10,3 7,7 - 0,0
19.06.2018 06:00:00 10,0 8,0 - 0,0
19.06.2018 05:00:00 9,5 7,6 - 0,0
19.06.2018 04:00:00 9,6 6,6 - 0,0
19.06.2018 03:00:00 9,6 5,8 - 0,0
19.06.2018 02:00:00 10,0 6,2 - 0,0
19.06.2018 01:00:00 10,5 6,8 - 0,0
19.06.2018 00:00:00 10,5 8,3 - 0,0
18.06.2018 23:00:00 10,1 7,7 - 0,0
18.06.2018 22:00:00 11,6 8,8 - 0,0
18.06.2018 21:00:00 13,0 10,0 - 0,0
18.06.2018 20:00:00 13,0 10,4 - 0,0
18.06.2018 19:00:00 12,4 10,9 - 0,0
18.06.2018 18:00:00 12,9 11,4 - 0,0
18.06.2018 17:00:00 12,5 11,0 - 0,0
18.06.2018 16:00:00 12,8 10,6 - 0,0
18.06.2018 15:00:00 14,0 10,9 - 0,0
18.06.2018 14:00:00 12,8 10,3 - 0,0
18.06.2018 13:00:00 13,3 10,9 - 0,0
18.06.2018 12:00:00 14,0 11,4 - 0,0
18.06.2018 11:00:00 13,0 10,1 - 0,0
18.06.2018 10:00:00 13,4 10,9 14,9 0,0
18.06.2018 09:00:00 12,5 9,3 - 0,0
18.06.2018 08:00:00 12,1 9,4 - 0,0
18.06.2018 07:00:00 11,5 9,1 - 0,0
18.06.2018 06:00:00 11,7 8,0 - 0,0
18.06.2018 05:00:00 11,9 7,6 - 0,0
18.06.2018 04:00:00 11,9 8,8 - 0,0
18.06.2018 03:00:00 12,1 9,3 - 0,0
18.06.2018 02:00:00 12,2 9,6 - 0,0
18.06.2018 01:00:00 12,7 11,0 - 0,0
18.06.2018 00:00:00 13,5 12,0 - 0,0
17.06.2018 23:00:00 13,0 11,4 - 0,0
17.06.2018 22:00:00 14,0 11,9 - 0,0
17.06.2018 21:00:00 13,4 11,9 - 0,0
17.06.2018 20:00:00 13,2 12,0 - 0,0
17.06.2018 19:00:00 12,7 11,9 - 0,0
17.06.2018 18:00:00 12,7 12,2 - 0,0
17.06.2018 17:00:00 12,5 12,1 - 0,0
17.06.2018 16:00:00 12,3 11,8 - 0,2
17.06.2018 15:00:00 12,3 11,6 - 0,0
17.06.2018 14:00:00 12,0 10,9 - 0,2
17.06.2018 13:00:00 12,6 10,1 - 0,0
17.06.2018 12:00:00 12,4 10,2 - 0,0
17.06.2018 11:00:00 12,7 10,5 - 0,0
17.06.2018 10:00:00 12,4 10,4 15,0 0,0
17.06.2018 09:00:00 13,0 10,6 - 0,0
17.06.2018 08:00:00 12,3 10,8 - 0,0
17.06.2018 07:00:00 11,5 10,1 - 0,0
17.06.2018 06:00:00 11,3 10,0 - 0,0
17.06.2018 05:00:00 11,0 9,8 - 0,0
17.06.2018 04:00:00 11,1 9,8 - 0,0
17.06.2018 03:00:00 11,0 9,6 - 0,0
17.06.2018 02:00:00 10,9 9,1 - 0,0
17.06.2018 01:00:00 10,7 8,8 - 0,0
17.06.2018 00:00:00 10,7 8,8 - 0,0
16.06.2018 23:00:00 10,4 8,2 - 0,0
16.06.2018 22:00:00 10,5 8,5 - 0,0
16.06.2018 21:00:00 11,3 7,7 - 0,0
16.06.2018 20:00:00 12,5 7,9 - 0,0
16.06.2018 19:00:00 13,4 9,0 - 0,0
16.06.2018 18:00:00 13,9 9,0 - 0,0
16.06.2018 17:00:00 14,5 9,1 - 0,0
16.06.2018 16:00:00 13,5 9,2 - 0,0
16.06.2018 15:00:00 11,6 10,0 - 0,6
16.06.2018 14:00:00 12,1 10,5 - 0,6
16.06.2018 13:00:00 14,1 11,5 - 0,0
16.06.2018 12:00:00 12,6 11,5 - 0,0
16.06.2018 11:00:00 12,0 11,6 - 0,2
16.06.2018 10:00:00 11,6 11,0 15,0 1,2
16.06.2018 09:00:00 11,0 10,3 - 0,6
16.06.2018 08:00:00 11,2 10,6 - 0,4
16.06.2018 07:00:00 11,1 10,3 - 0,6
16.06.2018 06:00:00 11,4 10,2 - 0,2
16.06.2018 05:00:00 11,8 9,6 - 0,0
16.06.2018 04:00:00 11,6 10,1 - 0,0
16.06.2018 03:00:00 11,8 9,7 - 0,0
16.06.2018 02:00:00 11,5 8,9 - 0,0
16.06.2018 01:00:00 11,3 10,2 - 0,0
16.06.2018 00:00:00 11,5 9,9 - 0,0
15.06.2018 23:00:00 11,2 9,4 - 0,0
15.06.2018 22:00:00 11,6 10,0 - 0,0
15.06.2018 21:00:00 12,1 9,1 - 0,0
15.06.2018 20:00:00 11,6 9,7 - 0,0
15.06.2018 19:00:00 11,7 9,4 - 0,0
15.06.2018 18:00:00 11,5 9,4 - 0,0
15.06.2018 17:00:00 11,8 9,5 - 0,0
15.06.2018 16:00:00 12,3 9,1 - 0,0
15.06.2018 15:00:00 13,3 10,0 - 0,0
15.06.2018 14:00:00 12,4 9,5 - 0,0
15.06.2018 13:00:00 13,3 10,0 - 0,0
15.06.2018 12:00:00 12,4 9,5 - 0,0
15.06.2018 11:00:00 11,9 9,1 - 0,0

tt = Température de l'air
td = dewpoint
tt -20cm = Température de l'air -20cm
rr = Quantités de précipitations

stations d'obs. à proximité